createdAt,value
2022-11-15T00:01:00.031Z,95.20
2022-11-15T00:03:45.857Z,94.52
2022-11-15T00:06:31.195Z,93.57
2022-11-15T00:09:16.331Z,93.64
2022-11-15T00:12:01.256Z,93.13
2022-11-15T00:14:46.080Z,93.44
2022-11-15T00:17:31.042Z,94.47
2022-11-15T00:20:16.098Z,93.66
2022-11-15T00:23:01.360Z,93.71
2022-11-15T00:25:46.382Z,95.05
2022-11-15T00:28:31.243Z,95.46
2022-11-15T00:31:16.245Z,95.82
2022-11-15T00:34:01.082Z,97.60
2022-11-15T00:36:46.024Z,99.19
2022-11-15T00:39:30.881Z,100.00
2022-11-15T00:42:15.889Z,100.00
2022-11-15T00:45:00.808Z,100.00
2022-11-15T00:47:47.152Z,100.00
2022-11-15T00:50:32.087Z,100.00
2022-11-15T00:53:17.584Z,100.00
2022-11-15T00:56:02.601Z,100.00
2022-11-15T00:58:47.639Z,100.00
2022-11-15T01:01:32.655Z,100.00
2022-11-15T01:04:17.611Z,100.00
2022-11-15T01:07:02.832Z,100.00
2022-11-15T01:09:48.027Z,100.00
2022-11-15T01:12:32.999Z,100.00
2022-11-15T01:15:18.601Z,100.00
2022-11-15T01:18:03.847Z,100.00
2022-11-15T01:20:48.983Z,100.00
2022-11-15T01:23:34.015Z,100.00
2022-11-15T01:26:19.296Z,100.00
2022-11-15T01:29:04.365Z,100.00
2022-11-15T01:31:49.448Z,100.00
2022-11-15T01:34:34.294Z,100.00
2022-11-15T01:37:19.063Z,100.00
2022-11-15T01:40:04.570Z,100.00
2022-11-15T01:42:49.421Z,100.00
2022-11-15T01:45:34.301Z,100.00
2022-11-15T01:48:19.508Z,100.00
2022-11-15T01:51:10.042Z,100.00
2022-11-15T01:53:59.569Z,100.00
2022-11-15T01:56:51.817Z,100.00
2022-11-15T01:59:40.904Z,100.00
2022-11-15T02:02:26.439Z,100.00
2022-11-15T02:05:12.085Z,100.00
2022-11-15T02:07:57.948Z,100.00
2022-11-15T02:10:43.023Z,100.00
2022-11-15T02:13:28.952Z,100.00
2022-11-15T02:16:53.610Z,100.00
2022-11-15T02:20:01.990Z,100.00
2022-11-15T02:23:07.177Z,100.00
2022-11-15T02:26:23.101Z,100.00
2022-11-15T02:29:15.727Z,100.00
2022-11-15T02:32:22.717Z,100.00
2022-11-15T02:35:21.578Z,100.00
2022-11-15T02:38:26.015Z,100.00
2022-11-15T02:41:16.416Z,100.00
2022-11-15T02:44:24.699Z,100.00
2022-11-15T02:47:14.556Z,100.00
2022-11-15T02:50:08.139Z,100.00
2022-11-15T02:52:53.812Z,100.00
2022-11-15T02:55:49.386Z,100.00
2022-11-15T02:59:10.331Z,100.00
2022-11-15T03:02:16.883Z,99.01
2022-11-15T03:05:22.838Z,98.09
2022-11-15T03:08:32.459Z,97.73
2022-11-15T03:11:23.798Z,97.29
2022-11-15T03:14:26.512Z,97.57
2022-11-15T03:17:26.660Z,97.92
2022-11-15T03:20:14.718Z,98.20
2022-11-15T03:23:09.144Z,97.79
2022-11-15T03:25:55.869Z,97.42
2022-11-15T03:28:54.459Z,97.04
2022-11-15T03:31:50.340Z,98.08
2022-11-15T03:34:35.798Z,98.23
2022-11-15T03:37:26.162Z,98.62
2022-11-15T03:40:11.720Z,98.50
2022-11-15T03:43:07.334Z,98.38
2022-11-15T03:46:00.457Z,98.52
2022-11-15T03:48:51.078Z,98.85
2022-11-15T03:51:36.190Z,99.38
2022-11-15T03:54:21.286Z,99.87
2022-11-15T03:57:06.230Z,100.00
2022-11-15T03:59:50.992Z,100.00
2022-11-15T04:02:35.858Z,100.00
2022-11-15T04:05:20.899Z,100.00
2022-11-15T04:08:05.751Z,100.00
2022-11-15T04:10:50.964Z,100.00
2022-11-15T04:13:35.767Z,100.00
2022-11-15T04:16:20.706Z,100.00
2022-11-15T04:19:24.482Z,100.00
2022-11-15T04:22:28.291Z,100.00
2022-11-15T04:25:13.568Z,100.00
2022-11-15T04:27:58.833Z,100.00
2022-11-15T04:30:43.804Z,100.00
2022-11-15T04:33:28.932Z,100.00
2022-11-15T04:36:32.725Z,100.00
2022-11-15T04:39:18.025Z,100.00
2022-11-15T04:42:03.200Z,100.00
2022-11-15T04:44:48.006Z,100.00
2022-11-15T04:47:32.960Z,98.28
2022-11-15T04:50:18.205Z,96.88
2022-11-15T04:53:03.179Z,97.72
2022-11-15T04:55:48.163Z,99.39
2022-11-15T04:58:33.177Z,100.00
2022-11-15T05:01:18.628Z,100.00
2022-11-15T05:04:22.228Z,100.00
2022-11-15T05:07:07.180Z,100.00
2022-11-15T05:09:52.360Z,100.00
2022-11-15T05:12:37.540Z,100.00
2022-11-15T05:15:22.918Z,100.00
2022-11-15T05:18:07.796Z,100.00
2022-11-15T05:20:52.757Z,100.00
2022-11-15T05:23:37.936Z,100.00
2022-11-15T05:26:22.848Z,100.00
2022-11-15T05:29:10.980Z,100.00
2022-11-15T05:31:56.084Z,100.00
2022-11-15T05:34:41.320Z,100.00
2022-11-15T05:37:26.124Z,100.00
2022-11-15T05:40:10.988Z,100.00
2022-11-15T05:42:55.860Z,100.00
2022-11-15T05:45:41.099Z,100.00
2022-11-15T05:48:26.587Z,100.00
2022-11-15T05:51:14.784Z,100.00
2022-11-15T05:54:01.619Z,100.00
2022-11-15T05:56:46.985Z,100.00
2022-11-15T05:59:32.836Z,100.00
2022-11-15T06:02:17.856Z,100.00
2022-11-15T06:05:02.769Z,100.00
2022-11-15T06:07:47.927Z,100.00
2022-11-15T06:10:33.574Z,100.00
2022-11-15T06:13:18.474Z,98.60
2022-11-15T06:16:03.646Z,96.87
2022-11-15T06:18:48.834Z,96.47
2022-11-15T06:21:34.004Z,96.79
2022-11-15T06:24:19.026Z,97.01
2022-11-15T06:27:04.036Z,96.70
2022-11-15T06:29:49.168Z,96.88
2022-11-15T06:32:34.124Z,97.35
2022-11-15T06:35:19.266Z,97.91
2022-11-15T06:38:14.328Z,97.88
2022-11-15T06:41:04.387Z,98.35
2022-11-15T06:43:49.479Z,97.47
2022-11-15T06:46:34.375Z,97.41
2022-11-15T06:49:19.128Z,97.30
2022-11-15T06:52:04.218Z,97.07
2022-11-15T06:54:49.461Z,96.75
2022-11-15T06:57:34.392Z,97.25
2022-11-15T07:00:21.285Z,95.86
2022-11-15T07:03:06.563Z,94.05
2022-11-15T07:05:54.275Z,94.42
2022-11-15T07:08:39.251Z,93.26
2022-11-15T07:11:24.139Z,92.69
2022-11-15T07:14:09.331Z,92.98
2022-11-15T07:16:54.099Z,91.95
2022-11-15T07:19:39.035Z,91.71
2022-11-15T07:22:23.888Z,92.42
2022-11-15T07:25:10.022Z,92.84
2022-11-15T07:27:59.431Z,93.40
2022-11-15T07:30:45.525Z,92.99
2022-11-15T07:33:30.618Z,92.46
2022-11-15T07:36:15.739Z,93.28
2022-11-15T07:39:00.591Z,93.86
2022-11-15T07:41:45.615Z,94.74
2022-11-15T07:44:30.549Z,94.94
2022-11-15T07:47:15.824Z,94.97
2022-11-15T07:50:01.076Z,94.66
2022-11-15T07:52:46.136Z,94.49
2022-11-15T07:55:31.159Z,94.45
2022-11-15T07:58:16.048Z,94.25
2022-11-15T08:01:05.237Z,95.26
2022-11-15T08:03:50.259Z,95.43
2022-11-15T08:06:35.177Z,93.12
2022-11-15T08:09:20.495Z,91.97
2022-11-15T08:12:06.376Z,92.32
2022-11-15T08:14:51.162Z,90.34
2022-11-15T08:17:36.317Z,91.43
2022-11-15T08:20:21.275Z,91.15
2022-11-15T08:23:07.076Z,91.41
2022-11-15T08:25:51.874Z,88.46
2022-11-15T08:28:36.898Z,89.55
2022-11-15T08:31:21.684Z,89.31
2022-11-15T08:34:07.077Z,87.69
2022-11-15T08:36:51.985Z,89.02
2022-11-15T08:39:36.917Z,87.49
2022-11-15T08:42:22.058Z,87.36
2022-11-15T08:45:08.552Z,86.86
2022-11-15T08:47:54.633Z,85.49
2022-11-15T08:50:39.621Z,86.54
2022-11-15T08:53:24.838Z,86.49
2022-11-15T08:56:11.952Z,85.33
2022-11-15T08:58:57.202Z,84.14
2022-11-15T09:01:42.345Z,83.38
2022-11-15T09:04:27.110Z,84.09
2022-11-15T09:07:12.802Z,85.96
2022-11-15T09:09:58.136Z,83.69
2022-11-15T09:12:44.118Z,84.84
2022-11-15T09:15:29.268Z,82.74
2022-11-15T09:18:14.295Z,81.21
2022-11-15T09:21:00.644Z,81.38
2022-11-15T09:23:46.008Z,84.03
2022-11-15T09:26:31.302Z,84.07
2022-11-15T09:29:16.225Z,84.72
2022-11-15T09:32:01.176Z,84.30
2022-11-15T09:34:46.443Z,84.90
2022-11-15T09:37:33.177Z,84.24
2022-11-15T09:40:21.398Z,82.00
2022-11-15T09:43:50.984Z,81.13
2022-11-15T09:47:03.461Z,80.84
2022-11-15T09:49:46.655Z,80.14
2022-11-15T09:52:20.254Z,81.90
2022-11-15T09:54:55.202Z,80.05
2022-11-15T09:57:25.192Z,79.94
2022-11-15T10:02:59.049Z,80.98
2022-11-15T10:05:27.048Z,81.77
2022-11-15T10:08:04.314Z,81.40
2022-11-15T10:10:43.719Z,81.90
2022-11-15T10:13:17.813Z,82.35
2022-11-15T10:15:46.543Z,81.50
2022-11-15T10:18:29.388Z,81.81
2022-11-15T10:21:00.872Z,81.60
2022-11-15T10:23:28.653Z,80.67
2022-11-15T10:26:03.673Z,82.38
2022-11-15T10:28:33.223Z,82.50
2022-11-15T10:31:05.590Z,81.67
2022-11-15T10:33:35.083Z,82.11
2022-11-15T10:36:26.112Z,81.91
2022-11-15T10:38:52.581Z,82.39
2022-11-15T10:41:27.920Z,83.41
2022-11-15T10:44:32.439Z,81.41
2022-11-15T10:47:05.559Z,80.90
2022-11-15T10:49:33.918Z,82.82
2022-11-15T10:52:05.329Z,83.42
2022-11-15T10:54:38.755Z,81.86
2022-11-15T10:57:22.780Z,82.34
2022-11-15T10:59:55.652Z,84.14
2022-11-15T11:02:30.170Z,83.62
2022-11-15T11:04:57.100Z,84.46
2022-11-15T11:07:32.555Z,84.33
2022-11-15T11:10:01.919Z,84.64
2022-11-15T11:12:32.283Z,83.88
2022-11-15T11:15:01.910Z,83.96
2022-11-15T11:17:43.802Z,83.76
2022-11-15T11:20:21.592Z,83.14
2022-11-15T11:23:18.368Z,83.90
2022-11-15T11:26:02.644Z,84.54
2022-11-15T11:28:47.872Z,83.77
2022-11-15T11:31:21.024Z,82.34
2022-11-15T11:34:10.651Z,84.01
2022-11-15T11:36:52.043Z,83.00
2022-11-15T11:39:33.889Z,82.51
2022-11-15T11:42:00.260Z,81.27
2022-11-15T11:44:26.607Z,80.94
2022-11-15T11:46:59.128Z,79.41
2022-11-15T11:49:47.408Z,79.91
2022-11-15T11:52:19.727Z,79.24
2022-11-15T11:54:56.436Z,79.15
2022-11-15T11:57:32.795Z,79.04
2022-11-15T12:00:18.448Z,79.73
2022-11-15T12:03:10.172Z,78.47
2022-11-15T12:05:40.290Z,78.47
2022-11-15T12:08:36.837Z,78.86
2022-11-15T12:11:09.296Z,78.28
2022-11-15T12:13:37.718Z,78.35
2022-11-15T12:16:43.127Z,79.05
2022-11-15T12:19:09.630Z,79.64
2022-11-15T12:21:47.690Z,79.86
2022-11-15T12:24:21.410Z,79.60
2022-11-15T12:27:02.630Z,79.67
2022-11-15T12:29:37.554Z,79.72
2022-11-15T12:32:05.520Z,79.97
2022-11-15T12:34:41.336Z,79.45
2022-11-15T12:37:36.613Z,78.91
2022-11-15T12:40:24.188Z,78.46
2022-11-15T12:43:06.021Z,79.13
2022-11-15T12:45:34.448Z,79.06
2022-11-15T12:48:26.552Z,78.14
2022-11-15T12:50:54.385Z,78.61
2022-11-15T12:53:23.900Z,78.96
2022-11-15T12:56:05.437Z,78.80
2022-11-15T12:58:53.767Z,77.47
2022-11-15T13:01:36.044Z,77.28
2022-11-15T13:04:29.792Z,76.77
2022-11-15T13:06:58.329Z,77.00
2022-11-15T13:09:37.191Z,77.09
2022-11-15T13:12:22.529Z,77.72
2022-11-15T13:14:52.406Z,75.44
2022-11-15T13:17:41.281Z,76.07
2022-11-15T13:20:07.647Z,80.52
2022-11-15T13:23:04.582Z,80.75
2022-11-15T13:25:40.025Z,80.31
2022-11-15T13:28:15.566Z,80.20
2022-11-15T13:31:19.499Z,81.43
2022-11-15T13:33:45.979Z,80.89
2022-11-15T13:36:28.247Z,82.87
2022-11-15T13:39:07.328Z,82.73
2022-11-15T13:41:36.064Z,82.56
2022-11-15T13:44:04.464Z,82.52
2022-11-15T13:46:35.028Z,82.53
2022-11-15T13:49:08.817Z,81.22
2022-11-15T13:51:45.942Z,81.93
2022-11-15T13:54:21.825Z,82.93
2022-11-15T13:56:53.346Z,82.28
2022-11-15T13:59:37.787Z,82.71
2022-11-15T14:02:17.975Z,82.77
2022-11-15T14:04:51.278Z,82.61
2022-11-15T14:07:20.808Z,83.32
2022-11-15T14:09:48.000Z,83.17
2022-11-15T14:12:50.787Z,83.46
2022-11-15T14:15:20.110Z,83.22
2022-11-15T14:17:49.980Z,83.19
2022-11-15T14:20:39.511Z,82.91
2022-11-15T14:23:27.632Z,83.06
2022-11-15T14:25:58.735Z,82.92
2022-11-15T14:28:25.091Z,83.13
2022-11-15T14:30:53.861Z,83.38
2022-11-15T14:33:25.952Z,83.23
2022-11-15T14:35:53.756Z,83.30
2022-11-15T14:38:20.311Z,83.10
2022-11-15T14:40:46.796Z,82.51
2022-11-15T14:43:14.158Z,82.79
2022-11-15T14:45:41.246Z,83.41
2022-11-15T14:48:07.801Z,83.32
2022-11-15T14:50:35.103Z,83.30
2022-11-15T14:53:02.332Z,83.72
2022-11-15T14:55:32.859Z,84.09
2022-11-15T14:58:00.120Z,83.50
2022-11-15T15:00:30.856Z,83.76
2022-11-15T15:03:00.348Z,84.08
2022-11-15T15:05:31.908Z,83.87
2022-11-15T15:07:58.391Z,82.85
2022-11-15T15:10:40.223Z,83.02
2022-11-15T15:13:20.260Z,83.57
2022-11-15T15:15:47.879Z,83.92
2022-11-15T15:18:14.500Z,84.06
2022-11-15T15:20:42.957Z,85.08
2022-11-15T15:23:19.811Z,85.02
2022-11-15T15:25:48.712Z,85.34
2022-11-15T15:28:15.696Z,85.68
2022-11-15T15:30:42.157Z,85.13
2022-11-15T15:33:08.583Z,85.35
2022-11-15T15:35:36.069Z,85.85
2022-11-15T15:38:03.219Z,86.84
2022-11-15T15:40:32.188Z,87.17
2022-11-15T15:42:58.703Z,87.54
2022-11-15T15:45:26.582Z,88.47
2022-11-15T15:47:53.109Z,88.09
2022-11-15T15:50:29.343Z,88.66
2022-11-15T15:52:58.238Z,89.41
2022-11-15T15:55:25.125Z,89.17
2022-11-15T15:57:51.811Z,89.30
2022-11-15T16:00:19.682Z,89.06
2022-11-15T16:02:46.763Z,88.40
2022-11-15T16:05:13.780Z,88.82
2022-11-15T16:07:41.408Z,88.35
2022-11-15T16:10:22.187Z,87.98
2022-11-15T16:12:49.468Z,88.13
2022-11-15T16:15:16.330Z,87.88
2022-11-15T16:17:48.916Z,87.61
2022-11-15T16:20:38.606Z,87.39
2022-11-15T16:23:09.561Z,89.03
2022-11-15T16:25:50.546Z,89.14
2022-11-15T16:28:23.831Z,88.37
2022-11-15T16:30:59.554Z,88.75
2022-11-15T16:33:26.025Z,87.74
2022-11-15T16:35:52.550Z,86.93
2022-11-15T16:38:19.139Z,86.76
2022-11-15T16:40:45.923Z,86.98
2022-11-15T16:43:12.412Z,87.14
2022-11-15T16:45:39.132Z,87.45
2022-11-15T16:48:05.882Z,87.57
2022-11-15T16:50:40.967Z,87.67
2022-11-15T16:53:07.607Z,88.18
2022-11-15T16:55:34.006Z,88.63
2022-11-15T16:58:01.747Z,87.97
2022-11-15T17:00:28.752Z,90.21
2022-11-15T17:02:56.078Z,90.30
2022-11-15T17:05:24.427Z,91.49
2022-11-15T17:07:54.109Z,91.31
2022-11-15T17:10:23.320Z,91.02
2022-11-15T17:12:50.748Z,90.84
2022-11-15T17:15:17.799Z,91.80
2022-11-15T17:17:44.748Z,92.91
2022-11-15T17:20:15.209Z,92.86
2022-11-15T17:22:41.904Z,92.23
2022-11-15T17:25:08.669Z,91.78
2022-11-15T17:27:35.240Z,91.16
2022-11-15T17:30:01.747Z,91.74
2022-11-15T17:32:28.309Z,91.50
2022-11-15T17:34:54.724Z,91.30
2022-11-15T17:37:21.102Z,91.72
2022-11-15T17:39:47.544Z,91.56
2022-11-15T17:42:13.945Z,91.48
2022-11-15T17:44:40.397Z,91.32
2022-11-15T17:47:06.892Z,91.80
2022-11-15T17:49:34.944Z,92.24
2022-11-15T17:52:01.393Z,92.53
2022-11-15T17:54:27.780Z,92.74
2022-11-15T17:56:54.229Z,93.07
2022-11-15T17:59:21.774Z,92.92
2022-11-15T18:01:48.270Z,92.44
2022-11-15T18:04:15.264Z,93.08
2022-11-15T18:06:42.292Z,94.38
2022-11-15T18:09:08.911Z,94.88
2022-11-15T18:11:41.431Z,95.35
2022-11-15T18:14:12.549Z,94.80
2022-11-15T18:16:40.223Z,95.29
2022-11-15T18:19:13.125Z,95.68
2022-11-15T18:21:56.913Z,94.72
2022-11-15T18:24:25.031Z,93.49
2022-11-15T18:26:51.476Z,93.27
2022-11-15T18:29:18.409Z,94.96
2022-11-15T18:31:47.772Z,95.48
2022-11-15T18:34:14.533Z,96.20
2022-11-15T18:36:41.263Z,96.15
2022-11-15T18:39:07.686Z,96.74
2022-11-15T18:41:34.574Z,96.56
2022-11-15T18:44:02.492Z,97.13
2022-11-15T18:46:31.769Z,96.39
2022-11-15T18:49:00.247Z,96.71
2022-11-15T18:51:30.105Z,96.98
2022-11-15T18:53:59.674Z,97.41
2022-11-15T18:56:28.260Z,97.08
2022-11-15T18:58:56.912Z,97.90
2022-11-15T19:01:26.475Z,98.05
2022-11-15T19:03:55.619Z,98.09
2022-11-15T19:06:27.398Z,98.51
2022-11-15T19:08:56.462Z,98.64
2022-11-15T19:11:27.985Z,98.51
2022-11-15T19:14:03.154Z,98.80
2022-11-15T19:16:33.071Z,99.07
2022-11-15T19:19:02.165Z,99.22
2022-11-15T19:21:30.850Z,99.31
2022-11-15T19:23:58.060Z,99.21
2022-11-15T19:26:25.596Z,99.96
2022-11-15T19:28:57.269Z,100.00
2022-11-15T19:31:24.305Z,100.00
2022-11-15T19:33:52.527Z,100.00
2022-11-15T19:36:32.394Z,100.00
2022-11-15T19:39:05.448Z,100.00
2022-11-15T19:41:32.375Z,100.00
2022-11-15T19:43:59.040Z,100.00
2022-11-15T19:46:26.821Z,100.00
2022-11-15T19:48:53.912Z,100.00
2022-11-15T19:51:23.123Z,100.00
2022-11-15T19:53:54.480Z,100.00
2022-11-15T19:56:21.886Z,100.00
2022-11-15T19:58:53.469Z,100.00
2022-11-15T20:01:19.799Z,100.00
2022-11-15T20:03:47.983Z,100.00
2022-11-15T20:06:17.196Z,100.00
2022-11-15T20:08:45.022Z,100.00
2022-11-15T20:11:12.463Z,100.00
2022-11-15T20:13:39.204Z,100.00
2022-11-15T20:16:06.046Z,100.00
2022-11-15T20:18:32.960Z,100.00
2022-11-15T20:21:00.089Z,100.00
2022-11-15T20:23:27.192Z,100.00
2022-11-15T20:25:54.240Z,100.00
2022-11-15T20:28:27.031Z,100.00
2022-11-15T20:30:59.245Z,100.00
2022-11-15T20:33:26.802Z,100.00
2022-11-15T20:35:54.303Z,100.00
2022-11-15T20:38:21.617Z,100.00
2022-11-15T20:40:49.501Z,100.00
2022-11-15T20:43:17.883Z,100.00
2022-11-15T20:45:46.266Z,100.00
2022-11-15T20:48:13.911Z,100.00
2022-11-15T20:50:43.263Z,100.00
2022-11-15T20:53:12.624Z,100.00
2022-11-15T20:55:41.304Z,100.00
2022-11-15T20:58:09.164Z,100.00
2022-11-15T21:00:36.963Z,100.00
2022-11-15T21:03:07.278Z,100.00
2022-11-15T21:05:37.851Z,100.00
2022-11-15T21:08:04.475Z,100.00
2022-11-15T21:10:49.643Z,100.00
2022-11-15T21:13:16.291Z,100.00
2022-11-15T21:15:43.165Z,100.00
2022-11-15T21:18:09.893Z,100.00
2022-11-15T21:20:36.363Z,100.00
2022-11-15T21:23:03.342Z,100.00
2022-11-15T21:25:29.862Z,99.46
2022-11-15T21:27:56.355Z,96.62
2022-11-15T21:30:22.810Z,96.77
2022-11-15T21:32:49.210Z,97.54
2022-11-15T21:35:15.692Z,98.01
2022-11-15T21:37:42.187Z,97.42
2022-11-15T21:40:09.083Z,96.65
2022-11-15T21:42:35.560Z,96.93
2022-11-15T21:45:02.221Z,96.56
2022-11-15T21:47:28.709Z,98.06
2022-11-15T21:49:55.127Z,99.03
2022-11-15T21:52:21.654Z,98.44
2022-11-15T21:54:48.093Z,99.93
2022-11-15T21:57:14.473Z,100.00
2022-11-15T22:00:00.845Z,100.00
2022-11-15T22:02:27.270Z,100.00
2022-11-15T22:04:53.660Z,100.00
2022-11-15T22:07:20.379Z,100.00
2022-11-15T22:09:46.990Z,100.00
2022-11-15T22:12:13.388Z,100.00
2022-11-15T22:14:39.805Z,100.00
2022-11-15T22:17:06.255Z,100.00
2022-11-15T22:19:32.747Z,100.00
2022-11-15T22:21:59.217Z,100.00
2022-11-15T22:24:25.822Z,100.00
2022-11-15T22:26:52.287Z,100.00
2022-11-15T22:29:18.832Z,100.00
2022-11-15T22:31:46.446Z,100.00
2022-11-15T22:34:12.921Z,100.00
2022-11-15T22:37:05.757Z,100.00
2022-11-15T22:39:31.674Z,100.00
2022-11-15T22:41:59.040Z,100.00
2022-11-15T22:44:25.470Z,100.00
2022-11-15T22:46:51.995Z,100.00
2022-11-15T22:49:18.451Z,100.00
2022-11-15T22:51:44.963Z,100.00
2022-11-15T22:54:11.480Z,100.00
2022-11-15T22:56:37.992Z,100.00
2022-11-15T22:59:04.467Z,100.00
2022-11-15T23:01:30.975Z,100.00
2022-11-15T23:03:57.557Z,100.00
2022-11-15T23:06:24.063Z,100.00
2022-11-15T23:08:50.540Z,100.00
2022-11-15T23:11:36.036Z,100.00
2022-11-15T23:14:02.588Z,100.00
2022-11-15T23:16:35.279Z,100.00
2022-11-15T23:19:05.004Z,100.00
2022-11-15T23:21:59.034Z,100.00
2022-11-15T23:24:26.287Z,100.00
2022-11-15T23:26:55.812Z,100.00
2022-11-15T23:29:24.839Z,100.00
2022-11-15T23:32:11.224Z,100.00
2022-11-15T23:34:40.232Z,100.00
2022-11-15T23:37:08.410Z,100.00
2022-11-15T23:39:34.871Z,100.00
2022-11-15T23:42:07.544Z,100.00
2022-11-15T23:44:35.399Z,100.00
2022-11-15T23:47:01.888Z,100.00
2022-11-15T23:49:28.339Z,100.00
2022-11-15T23:51:55.248Z,100.00
2022-11-15T23:54:21.725Z,100.00
2022-11-15T23:56:48.222Z,100.00
2022-11-15T23:59:14.771Z,100.00
